Details From KINW - WINSLOW LINDBERGH RGNL
To KRQE - WINDOW ROCK
Flight Number -
Tags generated
Created
Modified
Stats Distance 92 nm / 170 km
Max Altitude 7,400 ft / 2,256 m
Waypoints 3
Social Downloads 33
Likes 0
Share

Download

Looking for another format? Having issues loading an existing format? Contact us
Advertisement - Login to hide

Notes

Basic altitude profile: - Ascent Rate: 500ft/min - Ascent Speed: 100kts - Cruise Altitude: 5000ft - Cruise Speed: 120kts - Descent Rate: 700ft/min - Descent Speed: 100kts Options: - Use NATs: yes - Use PACOTS: yes - Use low airways: yes - Use high airways: yes

Route

KINW BUTTE KRQE

ID Type Via Altitude (ft/m) Position (lat/lon) Dist (leg/tot) Name
O KINW APT - 0 / 0 35.02159 / -110.72455 - / 0 nm WINSLOW LINDBERGH RGNL
BUTTE FIX - 7,400 / 2,256 35.28476 / -110.45021 20 / 20 nm
O KRQE APT - 0 / 0 35.65207 / -109.06738 71 / 91 nm WINDOW ROCK

Altitude Profile

Advertisement - Login to hide

KINW

Details ICAO KINW (INW)
Name WINSLOW LINDBERGH RGNL
Region United States
Timezone America/Phoenix (UTC-7.0)
Stats Elevation 4,941 ft / 1,506 m (AMSL)
Location 35.021600° -110.725000°
Runways 3
Magnetic Variation 9.670° E

METAR

KINW 040156Z AUTO 22007KT 10SM FEW120 14/09 A3021 RMK AO2 RAB05E19 SLP189 P0000 T01390094

Decode

TAF

KINW 032324Z 0400/0424 32012G18KT P6SM SCT040 BKN060 OVC100 TEMPO 0400/0401 VRB15G30KT 5SM -TSRA SCT040 BKN060CB FM040100 27008KT P6SM VCSH BKN050 BKN080 FM040300 VRB06KT P6SM BKN080 BKN250 FM040700 VRB04KT P6SM SCT080 BKN250 FM041800 VRB05KT P6SM SCT120

Decode

Departure Runways

ID Width Length Bearing (true/mag) Surface Threshold Overrun Markings Lighting
04 150 ft / 46 m 7,491 ft / 2,283 m 58.49° / 48.82° ASPHALT 0 ft / 0 m 0 ft / 0 m APP EDGE THRESHOLD
11 150 ft / 46 m 7,092 ft / 2,162 m 119.77° / 110.10° ASPHALT 190 ft / 58 m 398 ft / 121 m APP EDGE THRESHOLD REIL-OMNI
17 150 ft / 46 m 6,102 ft / 1,860 m 184.66° / 174.99° ASPHALT 0 ft / 0 m 0 ft / 0 m APP
22 150 ft / 46 m 7,491 ft / 2,283 m 238.50° / 228.83° ASPHALT 1,258 ft / 383 m 0 ft / 0 m APP EDGE THRESHOLD REIL-OMNI
29 150 ft / 46 m 7,092 ft / 2,162 m 299.79° / 290.12° ASPHALT 373 ft / 114 m 0 ft / 0 m APP EDGE THRESHOLD
35 150 ft / 46 m 6,102 ft / 1,860 m 4.66° / 354.99° ASPHALT 0 ft / 0 m 0 ft / 0 m APP

KRQE

Details ICAO KRQE
Name WINDOW ROCK
Region United States
Timezone America/Denver (UTC-6.0)
Stats Elevation 6,742 ft / 2,055 m (AMSL)
Location 35.652100° -109.067000°
Runways 1
Magnetic Variation 9.139° E

METAR

KRQE 040153Z AUTO 09003KT 10SM SCT065 14/11 A3027 RMK AO2 RAE29 SLP170 P0001 T01390106

Decode

TAF

Not found

Destination Runways

ID Width Length Bearing (true/mag) Surface Threshold Overrun Markings Lighting
02 75 ft / 23 m 7,006 ft / 2,135 m 33.93° / 24.80° ASPHALT 0 ft / 0 m 0 ft / 0 m APP EDGE THRESHOLD REIL-OMNI
20 75 ft / 23 m 7,006 ft / 2,135 m 213.94° / 204.80° ASPHALT 0 ft / 0 m 0 ft / 0 m APP EDGE THRESHOLD

Popular Alternatives